Time;durP1;ratioP1;P1;durP2;ratioP2;P2;SDS_P1;SDS_P2;PMS_P1;PMS_P2;Temp;Humidity;BMP_temperature;BMP_pressure;BME280_temperature;BME280_humidity;BME280_pressure;Samples;Min_cycle;Max_cycle;Signal;HPM_P1;HPM_P2
2022/05/05 00:01:41;;;;;;;;;;;30.70;82.90;;;;;;5106909;28;20223;-48
2022/05/05 00:04:07;;;;;;;;;;;30.70;82.90;;;;;;5106965;28;19911;-47
2022/05/05 00:06:34;;;;;;;;;;;30.70;82.80;;;;;;5106873;28;19904;-44
2022/05/05 00:09:00;;;;;;;;;;;30.60;82.40;;;;;;5106930;28;19907;-46
2022/05/05 00:14:23;;;;;;;;;;;30.60;82.00;;;;;;5107007;28;19946;-44
2022/05/05 00:16:53;;;;;;;;;;;30.60;81.90;;;;;;5106542;28;19915;-50
2022/05/05 00:19:20;;;;;;;;;;;30.60;82.00;;;;;;5106696;28;19903;-46
2022/05/05 00:21:46;;;;;;;;;;;30.50;81.90;;;;;;5106477;28;19908;-44
2022/05/05 00:24:12;;;;;;;;;;;30.50;81.90;;;;;;5106831;28;19903;-45
2022/05/05 00:26:39;;;;;;;;;;;30.50;81.60;;;;;;5106338;28;19931;-44
2022/05/05 00:29:05;;;;;;;;;;;30.50;81.60;;;;;;5106472;28;19904;-51
2022/05/05 00:31:31;;;;;;;;;;;30.50;81.70;;;;;;5105958;28;19912;-51
2022/05/05 00:33:57;;;;;;;;;;;30.40;81.40;;;;;;5106202;28;19907;-46
2022/05/05 00:36:25;;;;;;;;;;;30.40;81.10;;;;;;5106361;28;20125;-45
2022/05/05 00:38:51;;;;;;;;;;;30.40;80.80;;;;;;5106528;28;19919;-45
2022/05/05 00:41:17;;;;;;;;;;;30.40;81.00;;;;;;5106275;28;19911;-46
2022/05/05 00:43:43;;;;;;;;;;;30.40;81.10;;;;;;5106441;28;19900;-51
2022/05/05 00:46:09;;;;;;;;;;;30.40;80.70;;;;;;5106180;28;19908;-49
2022/05/05 00:48:36;;;;;;;;;;;30.30;80.60;;;;;;5106339;28;20148;-49
2022/05/05 00:51:02;;;;;;;;;;;30.30;80.80;;;;;;5106352;28;19908;-47
2022/05/05 00:53:28;;;;;;;;;;;30.40;80.70;;;;;;5105859;28;19912;-44
2022/05/05 00:55:56;;;;;;;;;;;30.30;80.50;;;;;;5106043;28;19947;-44
2022/05/05 00:58:23;;;;;;;;;;;30.30;80.40;;;;;;5108527;28;19975;-44
2022/05/05 01:00:51;;;;;;;;;;;30.30;80.30;;;;;;5096030;28;19910;-48
2022/05/05 01:03:19;;;;;;;;;;;30.20;80.30;;;;;;5121117;28;19911;-44
2022/05/05 01:05:45;;;;;;;;;;;30.10;80.30;;;;;;5122650;28;19912;-43
2022/05/05 01:08:11;;;;;;;;;;;30.10;80.40;;;;;;5105110;28;20128;-44
2022/05/05 01:10:37;;;;;;;;;;;30.00;80.40;;;;;;5090381;28;19979;-46
2022/05/05 01:13:05;;;;;;;;;;;30.00;80.30;;;;;;5110477;28;19904;-46
2022/05/05 01:15:32;;;;;;;;;;;30.00;80.10;;;;;;5099695;28;19919;-47
2022/05/05 01:17:58;;;;;;;;;;;30.00;79.90;;;;;;5105792;28;19906;-44
2022/05/05 01:20:24;;;;;;;;;;;29.90;80.00;;;;;;5103130;28;20086;-48
2022/05/05 01:22:50;;;;;;;;;;;29.80;80.40;;;;;;5101020;28;19944;-48
2022/05/05 01:28:12;;;;;;;;;;;29.80;80.40;;;;;;5121235;28;19925;-46
2022/05/05 01:30:41;;;;;;;;;;;29.80;80.30;;;;;;5125768;28;19926;-46
2022/05/05 01:33:11;;;;;;;;;;;29.80;80.20;;;;;;5124007;28;20138;-45
2022/05/05 01:35:38;;;;;;;;;;;29.70;80.00;;;;;;5115129;28;19934;-45
2022/05/05 01:38:04;;;;;;;;;;;29.70;79.90;;;;;;5104997;28;19903;-48
2022/05/05 01:40:30;;;;;;;;;;;29.70;79.80;;;;;;5088344;28;20238;-47
2022/05/05 01:42:58;;;;;;;;;;;29.60;79.80;;;;;;5114867;28;19938;-46
2022/05/05 01:45:25;;;;;;;;;;;29.70;79.90;;;;;;5119349;28;19987;-47
2022/05/05 01:47:51;;;;;;;;;;;29.60;80.20;;;;;;5114322;28;19900;-43
2022/05/05 01:50:17;;;;;;;;;;;29.60;79.80;;;;;;5102373;28;20215;-45
2022/05/05 01:52:43;;;;;;;;;;;29.60;79.70;;;;;;5105306;28;20135;-43
2022/05/05 01:55:09;;;;;;;;;;;29.60;79.40;;;;;;5099467;28;20278;-44
2022/05/05 01:57:35;;;;;;;;;;;29.60;79.30;;;;;;5105633;28;20196;-44
2022/05/05 02:00:03;;;;;;;;;;;29.60;79.50;;;;;;5104827;28;19907;-49
2022/05/05 02:02:29;;;;;;;;;;;29.60;79.40;;;;;;5116353;28;19908;-44
2022/05/05 02:04:55;;;;;;;;;;;29.50;79.70;;;;;;5124929;28;19978;-44
2022/05/05 02:07:22;;;;;;;;;;;29.50;79.60;;;;;;5125026;28;19941;-47
2022/05/05 02:09:48;;;;;;;;;;;29.50;79.50;;;;;;5124983;28;19982;-44
2022/05/05 02:12:15;;;;;;;;;;;29.50;79.60;;;;;;5114852;28;19904;-48
2022/05/05 02:14:41;;;;;;;;;;;29.50;79.70;;;;;;5104318;28;19908;-46
2022/05/05 02:17:07;;;;;;;;;;;29.40;79.70;;;;;;5103928;28;19940;-47
2022/05/05 02:19:33;;;;;;;;;;;29.40;79.80;;;;;;5104519;28;19907;-44
2022/05/05 02:21:59;;;;;;;;;;;29.40;79.90;;;;;;5111538;28;20020;-44
2022/05/05 02:24:26;;;;;;;;;;;29.30;80.00;;;;;;5119772;28;20231;-44
2022/05/05 02:26:52;;;;;;;;;;;29.30;80.10;;;;;;5098351;28;19930;-50
2022/05/05 02:29:18;;;;;;;;;;;29.30;80.10;;;;;;5087538;28;20191;-46
2022/05/05 02:31:45;;;;;;;;;;;29.30;80.00;;;;;;5094400;28;19904;-45
2022/05/05 02:34:11;;;;;;;;;;;29.20;79.70;;;;;;5125014;28;19912;-44
2022/05/05 02:39:22;;;;;;;;;;;29.20;79.70;;;;;;5095357;28;20199;-55
2022/05/05 02:41:50;;;;;;;;;;;29.20;79.60;;;;;;5109653;28;19910;-43
2022/05/05 02:44:16;;;;;;;;;;;29.20;79.40;;;;;;5112607;28;19908;-41
2022/05/05 02:46:42;;;;;;;;;;;29.10;79.60;;;;;;5095556;28;19936;-49
2022/05/05 02:49:09;;;;;;;;;;;29.10;79.60;;;;;;5095210;28;20197;-41
2022/05/05 02:51:36;;;;;;;;;;;29.10;79.60;;;;;;5084232;28;20140;-42
2022/05/05 02:56:48;;;;;;;;;;;29.10;79.80;;;;;;5087319;28;19946;-44
2022/05/05 02:59:14;;;;;;;;;;;29.00;79.50;;;;;;5088112;28;19907;-41
2022/05/05 03:01:41;;;;;;;;;;;29.00;79.40;;;;;;5087479;28;19983;-43
2022/05/05 03:04:07;;;;;;;;;;;29.00;79.60;;;;;;5087661;28;20142;-42
2022/05/05 03:06:33;;;;;;;;;;;29.10;79.50;;;;;;5087642;28;19910;-42
2022/05/05 03:08:59;;;;;;;;;;;29.00;79.30;;;;;;5087821;28;19911;-42
2022/05/05 03:11:25;;;;;;;;;;;29.00;79.30;;;;;;5087484;28;19904;-42
2022/05/05 03:13:51;;;;;;;;;;;29.00;79.40;;;;;;5087799;28;20204;-42
2022/05/05 03:16:18;;;;;;;;;;;29.00;79.20;;;;;;5089466;28;19912;-41
2022/05/05 03:18:44;;;;;;;;;;;29.00;79.20;;;;;;5100227;28;19904;-43
2022/05/05 03:21:10;;;;;;;;;;;29.00;79.00;;;;;;5090816;28;19983;-42
2022/05/05 03:23:36;;;;;;;;;;;29.00;78.90;;;;;;5087696;28;19900;-42
2022/05/05 03:26:03;;;;;;;;;;;29.00;78.90;;;;;;5087255;28;19908;-42
2022/05/05 03:28:29;;;;;;;;;;;28.90;78.80;;;;;;5087537;28;19904;-42
2022/05/05 03:30:55;;;;;;;;;;;28.90;78.60;;;;;;5087346;28;19911;-43
2022/05/05 03:33:21;;;;;;;;;;;28.90;78.70;;;;;;5098758;28;19982;-41
2022/05/05 03:35:47;;;;;;;;;;;28.90;78.90;;;;;;5086223;28;19908;-42
2022/05/05 03:38:13;;;;;;;;;;;29.00;78.70;;;;;;5086968;28;19973;-42
2022/05/05 03:40:41;;;;;;;;;;;29.00;78.50;;;;;;5086934;28;20188;-41
2022/05/05 03:43:07;;;;;;;;;;;29.00;78.20;;;;;;5086423;28;19907;-42
2022/05/05 03:45:33;;;;;;;;;;;29.00;78.60;;;;;;5087070;28;19915;-41
2022/05/05 03:48:00;;;;;;;;;;;29.10;78.10;;;;;;5069068;28;19935;-47
2022/05/05 03:50:26;;;;;;;;;;;29.10;78.00;;;;;;5086797;28;19916;-41
2022/05/05 03:52:52;;;;;;;;;;;29.10;77.80;;;;;;5088270;28;19982;-40
2022/05/05 03:55:18;;;;;;;;;;;29.10;77.80;;;;;;5096004;28;19916;-42
2022/05/05 03:57:44;;;;;;;;;;;29.10;77.80;;;;;;5086473;28;19987;-46
2022/05/05 04:00:10;;;;;;;;;;;29.10;77.60;;;;;;5087013;28;19901;-41
2022/05/05 04:02:37;;;;;;;;;;;29.10;78.00;;;;;;5086897;28;19908;-42
2022/05/05 04:05:03;;;;;;;;;;;29.10;77.60;;;;;;5087094;28;19940;-40
2022/05/05 04:07:29;;;;;;;;;;;29.10;78.80;;;;;;5085379;28;19935;-44
2022/05/05 04:09:56;;;;;;;;;;;29.00;78.50;;;;;;5087018;28;20070;-46
2022/05/05 04:12:22;;;;;;;;;;;29.00;77.90;;;;;;5086260;28;19904;-41
2022/05/05 04:14:49;;;;;;;;;;;29.00;78.40;;;;;;5086870;28;19908;-42
2022/05/05 04:17:16;;;;;;;;;;;29.00;78.00;;;;;;5086510;28;19904;-40
2022/05/05 04:19:43;;;;;;;;;;;29.00;78.10;;;;;;5086731;28;19900;-45
2022/05/05 04:22:09;;;;;;;;;;;29.00;78.40;;;;;;5086324;28;19966;-42
2022/05/05 04:24:35;;;;;;;;;;;29.00;78.20;;;;;;5088801;28;19904;-47
2022/05/05 04:27:01;;;;;;;;;;;29.00;77.90;;;;;;5094679;28;19936;-43
2022/05/05 04:29:27;;;;;;;;;;;28.90;78.00;;;;;;5086494;28;19947;-42
2022/05/05 04:31:54;;;;;;;;;;;28.90;77.80;;;;;;5086282;28;19916;-42
2022/05/05 04:34:20;;;;;;;;;;;28.90;78.30;;;;;;5085760;28;19962;-47
2022/05/05 04:36:46;;;;;;;;;;;28.90;78.10;;;;;;5104828;28;19918;-40
2022/05/05 04:39:12;;;;;;;;;;;28.90;78.70;;;;;;5127001;28;19975;-39
2022/05/05 04:41:39;;;;;;;;;;;28.90;78.60;;;;;;5126386;28;19904;-38
2022/05/05 04:44:05;;;;;;;;;;;29.00;78.50;;;;;;5126864;28;20169;-40
2022/05/05 04:46:31;;;;;;;;;;;28.90;78.70;;;;;;5126567;28;19908;-40
2022/05/05 04:48:57;;;;;;;;;;;28.90;79.50;;;;;;5126080;28;20013;-39
2022/05/05 04:51:23;;;;;;;;;;;28.90;79.50;;;;;;5126467;28;19908;-45
2022/05/05 04:53:49;;;;;;;;;;;28.90;79.50;;;;;;5126294;28;19911;-40
2022/05/05 04:56:16;;;;;;;;;;;28.90;79.90;;;;;;5126449;28;19962;-40
2022/05/05 04:58:42;;;;;;;;;;;28.90;80.00;;;;;;5126286;28;20239;-42
2022/05/05 05:01:08;;;;;;;;;;;28.90;80.00;;;;;;5124646;28;19911;-45
2022/05/05 05:03:39;;;;;;;;;;;28.80;80.20;;;;;;5126410;28;19903;-41
2022/05/05 05:06:06;;;;;;;;;;;28.80;80.90;;;;;;5126150;28;19903;-41
2022/05/05 05:08:33;;;;;;;;;;;28.80;81.00;;;;;;5126347;28;19927;-45
2022/05/05 05:10:59;;;;;;;;;;;28.80;80.60;;;;;;5126097;28;19953;-49
2022/05/05 05:13:25;;;;;;;;;;;28.80;80.30;;;;;;5120976;28;19904;-48
2022/05/05 05:15:52;;;;;;;;;;;28.80;80.30;;;;;;5106104;28;19951;-46
2022/05/05 05:18:18;;;;;;;;;;;28.80;80.70;;;;;;5117595;28;20132;-43
2022/05/05 05:20:44;;;;;;;;;;;28.80;80.80;;;;;;5125018;28;19979;-44
2022/05/05 05:23:10;;;;;;;;;;;28.70;80.90;;;;;;5105437;28;19904;-40
2022/05/05 05:25:36;;;;;;;;;;;28.70;80.80;;;;;;5105570;28;20043;-43
2022/05/05 05:28:03;;;;;;;;;;;28.70;80.30;;;;;;5105228;28;19975;-41
2022/05/05 05:30:29;;;;;;;;;;;28.70;80.40;;;;;;5105378;28;19935;-46
2022/05/05 05:32:55;;;;;;;;;;;28.70;80.70;;;;;;5105133;28;20202;-40
2022/05/05 05:35:21;;;;;;;;;;;28.70;80.30;;;;;;5105059;28;20111;-42
2022/05/05 05:37:47;;;;;;;;;;;28.70;80.40;;;;;;5113412;28;19911;-41
2022/05/05 05:40:15;;;;;;;;;;;28.70;79.70;;;;;;5126126;28;19911;-40
2022/05/05 05:42:41;;;;;;;;;;;28.70;79.40;;;;;;5125542;28;20210;-41
2022/05/05 05:45:08;;;;;;;;;;;28.70;78.90;;;;;;5126016;28;19907;-41
2022/05/05 05:47:34;;;;;;;;;;;28.70;78.90;;;;;;5125478;28;20107;-44
2022/05/05 05:50:00;;;;;;;;;;;28.70;79.00;;;;;;5125685;28;19904;-41
2022/05/05 05:52:26;;;;;;;;;;;28.70;79.30;;;;;;5125167;28;19915;-44
2022/05/05 05:54:52;;;;;;;;;;;28.70;79.40;;;;;;5125707;28;20172;-44
2022/05/05 05:57:21;;;;;;;;;;;28.70;79.10;;;;;;5115295;28;20345;-44
2022/05/05 05:59:47;;;;;;;;;;;28.70;79.10;;;;;;5111372;28;19939;-43
2022/05/05 06:04:58;;;;;;;;;;;28.60;79.40;;;;;;5125106;28;19984;-47
2022/05/05 06:07:24;;;;;;;;;;;28.60;79.40;;;;;;5125179;28;19908;-43
2022/05/05 06:09:50;;;;;;;;;;;28.60;79.50;;;;;;5125614;28;19907;-44
2022/05/05 06:12:16;;;;;;;;;;;28.60;79.60;;;;;;5125036;28;19950;-45
2022/05/05 06:14:42;;;;;;;;;;;28.60;79.60;;;;;;5125328;28;19956;-42
2022/05/05 06:17:09;;;;;;;;;;;28.60;79.90;;;;;;5125013;28;19912;-43
2022/05/05 06:19:36;;;;;;;;;;;28.60;79.80;;;;;;5124649;28;19915;-46
2022/05/05 06:22:03;;;;;;;;;;;28.60;79.70;;;;;;5104551;28;20211;-41
2022/05/05 06:24:29;;;;;;;;;;;28.60;79.50;;;;;;5104946;28;19943;-43
2022/05/05 06:26:55;;;;;;;;;;;28.60;79.30;;;;;;5104498;28;19912;-41
2022/05/05 06:29:21;;;;;;;;;;;28.60;79.30;;;;;;5104492;28;19960;-43
2022/05/05 06:31:47;;;;;;;;;;;28.60;79.50;;;;;;5103765;28;19909;-42
2022/05/05 06:34:14;;;;;;;;;;;28.60;79.70;;;;;;5104629;28;19954;-43
2022/05/05 06:36:40;;;;;;;;;;;28.50;79.80;;;;;;5104342;28;19908;-43
2022/05/05 06:39:06;;;;;;;;;;;28.50;80.00;;;;;;5104763;28;19911;-44
2022/05/05 06:41:34;;;;;;;;;;;28.50;80.10;;;;;;5104324;28;19919;-41
2022/05/05 06:44:00;;;;;;;;;;;28.50;80.10;;;;;;5104573;28;20176;-42
2022/05/05 06:46:27;;;;;;;;;;;28.50;80.10;;;;;;5104300;28;19919;-43
2022/05/05 06:48:54;;;;;;;;;;;28.50;79.90;;;;;;5104423;28;19971;-41
2022/05/05 06:51:20;;;;;;;;;;;28.50;80.20;;;;;;5104265;28;19980;-43
2022/05/05 06:53:46;;;;;;;;;;;28.50;79.90;;;;;;5104236;28;19916;-43
2022/05/05 06:56:12;;;;;;;;;;;28.50;79.90;;;;;;5104288;28;20189;-46
2022/05/05 06:58:39;;;;;;;;;;;28.50;80.00;;;;;;5104213;28;20268;-41
2022/05/05 07:05:23;;;;;;;;;;;28.40;80.10;;;;;;5104100;28;20212;-42
2022/05/05 07:06:35;;;;;;;;;;;28.40;80.10;;;;;;5104096;28;19912;-45
2022/05/05 07:11:46;;;;;;;;;;;28.40;80.80;;;;;;5104220;28;20223;-41
2022/05/05 07:14:12;;;;;;;;;;;28.40;81.50;;;;;;5104248;28;19990;-44
2022/05/05 07:16:38;;;;;;;;;;;28.40;81.00;;;;;;5103883;28;19912;-40
2022/05/05 07:19:04;;;;;;;;;;;28.40;81.20;;;;;;5104202;28;19915;-46
2022/05/05 07:21:30;;;;;;;;;;;28.30;81.20;;;;;;5104086;28;20160;-40
2022/05/05 07:23:57;;;;;;;;;;;28.30;81.20;;;;;;5104111;28;20195;-41
2022/05/05 07:26:23;;;;;;;;;;;28.30;81.90;;;;;;5103935;28;19912;-42
2022/05/05 07:28:49;;;;;;;;;;;28.30;81.70;;;;;;5104078;28;19979;-43
2022/05/05 07:31:17;;;;;;;;;;;28.20;81.90;;;;;;5103845;28;20188;-41
2022/05/05 07:33:43;;;;;;;;;;;28.20;81.20;;;;;;5103999;28;20122;-42
2022/05/05 07:36:09;;;;;;;;;;;28.20;80.70;;;;;;5103959;28;19916;-40
2022/05/05 07:38:36;;;;;;;;;;;28.20;80.50;;;;;;5103977;28;20088;-46
2022/05/05 07:41:03;;;;;;;;;;;28.20;80.10;;;;;;5104120;28;19919;-44
2022/05/05 07:43:29;;;;;;;;;;;28.20;79.90;;;;;;5107520;28;19946;-42
2022/05/05 07:45:55;;;;;;;;;;;28.20;79.80;;;;;;5107406;28;19944;-42
2022/05/05 07:48:22;;;;;;;;;;;28.20;79.10;;;;;;5107432;28;19908;-44
2022/05/05 07:50:48;;;;;;;;;;;28.20;79.20;;;;;;5107437;28;19982;-40
2022/05/05 07:53:15;;;;;;;;;;;28.20;79.40;;;;;;5107146;28;19916;-38
2022/05/05 07:55:41;;;;;;;;;;;28.20;79.10;;;;;;5107171;28;19927;-42
2022/05/05 07:58:07;;;;;;;;;;;28.20;79.20;;;;;;5107208;28;19904;-38
2022/05/05 08:00:33;;;;;;;;;;;28.20;78.90;;;;;;5107085;28;19959;-42
2022/05/05 08:02:59;;;;;;;;;;;28.20;78.80;;;;;;5107023;28;20104;-40
2022/05/05 08:05:27;;;;;;;;;;;28.20;78.80;;;;;;5107273;28;20143;-41
2022/05/05 08:07:53;;;;;;;;;;;28.20;78.80;;;;;;5106886;28;19904;-41
2022/05/05 08:10:20;;;;;;;;;;;28.20;78.40;;;;;;5106794;28;19914;-41
2022/05/05 08:12:47;;;;;;;;;;;28.20;78.50;;;;;;5106890;28;19915;-45
2022/05/05 08:15:14;;;;;;;;;;;28.20;78.50;;;;;;5107331;28;19908;-43
2022/05/05 08:17:40;;;;;;;;;;;28.10;78.30;;;;;;5106647;28;19912;-43
2022/05/05 08:20:07;;;;;;;;;;;28.20;78.30;;;;;;5107225;28;19912;-44
2022/05/05 08:22:33;;;;;;;;;;;28.20;78.10;;;;;;5106682;28;19908;-43
2022/05/05 08:30:28;;;;;;;;;;;28.10;78.00;;;;;;5106736;28;20223;-45
2022/05/05 08:32:55;;;;;;;;;;;28.10;77.80;;;;;;5106724;28;20066;-42
2022/05/05 08:35:22;;;;;;;;;;;28.10;77.80;;;;;;5106330;28;19959;-42
2022/05/05 08:37:51;;;;;;;;;;;28.10;77.60;;;;;;5106312;28;19971;-43
2022/05/05 08:40:18;;;;;;;;;;;28.10;77.60;;;;;;5106411;28;20161;-41
2022/05/05 08:42:45;;;;;;;;;;;28.10;77.60;;;;;;5106123;28;19936;-42
2022/05/05 08:45:11;;;;;;;;;;;28.10;77.70;;;;;;5106737;28;19908;-47
2022/05/05 08:47:38;;;;;;;;;;;28.10;77.60;;;;;;5106257;28;19912;-48
2022/05/05 08:50:07;;;;;;;;;;;28.10;77.50;;;;;;5106579;28;19908;-53
2022/05/05 08:52:38;;;;;;;;;;;28.10;77.40;;;;;;5105505;28;19912;-53
2022/05/05 08:55:04;;;;;;;;;;;28.10;77.40;;;;;;5106223;28;19919;-45
2022/05/05 08:57:30;;;;;;;;;;;28.10;77.60;;;;;;5106009;28;19916;-43
2022/05/05 08:59:57;;;;;;;;;;;28.10;77.50;;;;;;5106322;28;19939;-41
2022/05/05 09:02:24;;;;;;;;;;;28.10;77.60;;;;;;5106026;28;19939;-44
2022/05/05 09:04:50;;;;;;;;;;;28.10;77.70;;;;;;5106219;28;19914;-43
2022/05/05 09:07:16;;;;;;;;;;;28.10;77.50;;;;;;5106107;28;19912;-45
2022/05/05 09:09:42;;;;;;;;;;;28.10;77.60;;;;;;5106389;28;19950;-47
2022/05/05 09:12:12;;;;;;;;;;;28.10;77.50;;;;;;5105697;28;19916;-52
2022/05/05 09:14:46;;;;;;;;;;;28.10;77.60;;;;;;5105912;28;19915;-44
2022/05/05 09:17:13;;;;;;;;;;;28.10;77.80;;;;;;5105630;28;19979;-46
2022/05/05 09:19:40;;;;;;;;;;;28.10;78.00;;;;;;5105857;28;20159;-54
2022/05/05 09:22:08;;;;;;;;;;;28.10;77.90;;;;;;5105619;28;19919;-43
2022/05/05 09:24:41;;;;;;;;;;;28.10;78.20;;;;;;5105857;28;20100;-44
2022/05/05 09:27:25;;;;;;;;;;;28.10;78.30;;;;;;5105384;28;19935;-43
2022/05/05 09:30:17;;;;;;;;;;;28.10;78.10;;;;;;5105850;28;20013;-44
2022/05/05 09:32:45;;;;;;;;;;;28.10;78.40;;;;;;5100658;28;19935;-43
2022/05/05 09:35:12;;;;;;;;;;;28.10;78.40;;;;;;5105728;28;19958;-40
2022/05/05 09:37:54;;;;;;;;;;;28.00;78.30;;;;;;5105446;28;19969;-41
2022/05/05 09:40:22;;;;;;;;;;;28.00;78.30;;;;;;5105270;28;19912;-41
2022/05/05 09:42:52;;;;;;;;;;;28.00;78.40;;;;;;5105016;28;19971;-42
2022/05/05 09:45:19;;;;;;;;;;;28.00;78.40;;;;;;5105144;28;20159;-47
2022/05/05 09:47:49;;;;;;;;;;;28.00;78.30;;;;;;5105399;28;20104;-43
2022/05/05 09:50:16;;;;;;;;;;;28.00;78.30;;;;;;5105411;28;20203;-43
2022/05/05 09:58:16;;;;;;;;;;;28.00;77.90;;;;;;5104962;28;20235;-43
2022/05/05 10:00:48;;;;;;;;;;;28.00;77.90;;;;;;5104694;28;19912;-47
2022/05/05 10:04:23;;;;;;;;;;;28.00;77.80;;;;;;5104809;28;20080;-46
2022/05/05 10:06:25;;;;;;;;;;;28.00;77.90;;;;;;5090382;28;19919;-42
2022/05/05 10:08:53;;;;;;;;;;;28.00;77.70;;;;;;5104972;28;20107;-46
2022/05/05 10:11:21;;;;;;;;;;;28.00;77.80;;;;;;5104551;28;19913;-44
2022/05/05 10:13:48;;;;;;;;;;;28.00;77.50;;;;;;5104944;28;19912;-43
2022/05/05 10:16:17;;;;;;;;;;;28.00;77.60;;;;;;5104630;28;19989;-44
2022/05/05 10:18:43;;;;;;;;;;;28.00;77.30;;;;;;5104329;28;19908;-40
2022/05/05 10:21:28;;;;;;;;;;;28.00;77.30;;;;;;5104551;28;19912;-44
2022/05/05 10:24:15;;;;;;;;;;;28.00;77.30;;;;;;5104694;28;19916;-41
2022/05/05 10:26:41;;;;;;;;;;;28.00;77.30;;;;;;5104350;28;19912;-41
2022/05/05 10:29:26;;;;;;;;;;;28.00;77.40;;;;;;5109470;28;19954;-43
2022/05/05 10:31:52;;;;;;;;;;;28.00;77.30;;;;;;5124240;28;19912;-41
2022/05/05 10:34:19;;;;;;;;;;;28.00;77.30;;;;;;5120377;28;20222;-40
2022/05/05 10:36:58;;;;;;;;;;;27.90;77.40;;;;;;5124815;28;19908;-40
2022/05/05 10:39:26;;;;;;;;;;;28.00;77.60;;;;;;5125171;28;19982;-41
2022/05/05 10:42:13;;;;;;;;;;;27.90;77.70;;;;;;5124591;28;19916;-41
2022/05/05 10:44:58;;;;;;;;;;;27.90;77.80;;;;;;5125023;28;19914;-40
2022/05/05 10:47:26;;;;;;;;;;;28.00;77.90;;;;;;5124540;28;20103;-40
2022/05/05 10:49:53;;;;;;;;;;;27.90;78.00;;;;;;5125070;28;19911;-45
2022/05/05 10:52:26;;;;;;;;;;;28.00;78.20;;;;;;5124528;28;20196;-42
2022/05/05 10:54:54;;;;;;;;;;;27.90;78.10;;;;;;5124594;28;19969;-42
2022/05/05 10:57:24;;;;;;;;;;;28.00;78.30;;;;;;5124154;28;19916;-42
2022/05/05 11:00:09;;;;;;;;;;;28.00;78.60;;;;;;5124834;28;19916;-41
2022/05/05 11:02:36;;;;;;;;;;;27.90;78.80;;;;;;5124291;28;20085;-45
2022/05/05 11:05:21;;;;;;;;;;;28.00;78.90;;;;;;5124123;28;20104;-42
2022/05/05 11:07:51;;;;;;;;;;;27.90;78.90;;;;;;5124613;28;19971;-52
2022/05/05 11:10:44;;;;;;;;;;;27.90;79.00;;;;;;5117608;28;20104;-42
2022/05/05 11:13:28;;;;;;;;;;;28.00;78.90;;;;;;5104278;28;20252;-44
2022/05/05 11:21:33;;;;;;;;;;;27.90;79.40;;;;;;5128326;28;19954;-43
2022/05/05 11:24:00;;;;;;;;;;;27.90;79.30;;;;;;5128336;28;19908;-43
2022/05/05 11:26:26;;;;;;;;;;;27.90;79.90;;;;;;5127760;28;20112;-41
2022/05/05 11:28:53;;;;;;;;;;;27.90;80.00;;;;;;5128358;28;19978;-42
2022/05/05 11:31:21;;;;;;;;;;;28.00;80.80;;;;;;5126604;28;19961;-42
2022/05/05 11:33:53;;;;;;;;;;;27.90;80.10;;;;;;5107622;28;19908;-46
2022/05/05 11:36:20;;;;;;;;;;;27.90;79.90;;;;;;5107443;28;20104;-41
2022/05/05 11:38:46;;;;;;;;;;;28.00;80.50;;;;;;5107755;28;20136;-41
2022/05/05 11:41:17;;;;;;;;;;;28.00;81.10;;;;;;5107573;28;19955;-41
2022/05/05 11:46:27;;;;;;;;;;;28.00;82.20;;;;;;5107538;28;20112;-43
2022/05/05 11:48:55;;;;;;;;;;;27.90;82.00;;;;;;5107598;28;20180;-40
2022/05/05 11:51:22;;;;;;;;;;;27.90;81.40;;;;;;5107687;28;19946;-42
2022/05/05 11:53:48;;;;;;;;;;;28.00;81.00;;;;;;5127805;28;19987;-42
2022/05/05 11:56:16;;;;;;;;;;;28.00;81.00;;;;;;5127555;28;19915;-41
2022/05/05 12:01:42;;;;;;;;;;;28.00;81.90;;;;;;5086811;28;19920;-44
2022/05/05 12:04:10;;;;;;;;;;;28.00;82.00;;;;;;5087050;28;19908;-43
2022/05/05 12:06:37;;;;;;;;;;;27.90;82.40;;;;;;5100228;28;19912;-43
2022/05/05 12:09:05;;;;;;;;;;;27.90;82.10;;;;;;5127461;28;19915;-40
2022/05/05 12:11:31;;;;;;;;;;;27.90;82.20;;;;;;5127210;28;19914;-42
2022/05/05 12:14:03;;;;;;;;;;;27.90;82.60;;;;;;5127533;28;19908;-40
2022/05/05 12:16:30;;;;;;;;;;;27.90;83.70;;;;;;5127139;28;19912;-42
2022/05/05 12:18:57;;;;;;;;;;;27.90;83.80;;;;;;5127402;28;19908;-42
2022/05/05 12:21:24;;;;;;;;;;;27.90;84.10;;;;;;5126994;28;20192;-49
2022/05/05 12:23:58;;;;;;;;;;;27.80;84.00;;;;;;5124042;28;19991;-45
2022/05/05 12:26:32;;;;;;;;;;;27.80;84.10;;;;;;5123750;28;19919;-42
2022/05/05 12:29:01;;;;;;;;;;;27.80;84.00;;;;;;5124338;28;19935;-44
2022/05/05 12:31:30;;;;;;;;;;;27.80;83.80;;;;;;5127058;28;19953;-42
2022/05/05 12:33:57;;;;;;;;;;;27.80;83.90;;;;;;5127248;28;19944;-42
2022/05/05 12:36:29;;;;;;;;;;;27.80;84.40;;;;;;5126722;28;19912;-42
2022/05/05 12:39:14;;;;;;;;;;;27.80;84.90;;;;;;5126993;28;19914;-42
2022/05/05 12:42:00;;;;;;;;;;;27.80;85.70;;;;;;5126945;28;19947;-41
2022/05/05 12:44:33;;;;;;;;;;;27.70;86.50;;;;;;5108711;28;20096;-40
2022/05/05 12:47:02;;;;;;;;;;;27.70;87.00;;;;;;5126539;28;19916;-41
2022/05/05 12:49:35;;;;;;;;;;;27.70;87.60;;;;;;5126349;28;19981;-43
2022/05/05 12:52:02;;;;;;;;;;;27.70;88.00;;;;;;5126541;28;19912;-43
2022/05/05 13:00:07;;;;;;;;;;;27.70;89.60;;;;;;5062079;28;19908;-40
2022/05/05 13:02:33;;;;;;;;;;;27.70;90.20;;;;;;5085679;28;19950;-42
2022/05/05 13:04:59;;;;;;;;;;;27.70;90.40;;;;;;5085959;28;19979;-40
2022/05/05 13:07:28;;;;;;;;;;;27.60;90.70;;;;;;5085224;28;19909;-43
2022/05/05 13:09:54;;;;;;;;;;;27.60;90.80;;;;;;5093439;28;19908;-43
2022/05/05 13:12:20;;;;;;;;;;;27.60;90.90;;;;;;5115989;28;19947;-42
2022/05/05 13:14:46;;;;;;;;;;;27.60;91.00;;;;;;5105895;28;19960;-46
2022/05/05 13:17:13;;;;;;;;;;;27.60;91.00;;;;;;5105630;28;19912;-43
2022/05/05 13:19:40;;;;;;;;;;;27.60;91.10;;;;;;5105903;28;19943;-40
2022/05/05 13:22:06;;;;;;;;;;;27.60;91.40;;;;;;5107315;28;19948;-46
2022/05/05 13:24:34;;;;;;;;;;;27.60;91.50;;;;;;5126028;28;19907;-45
2022/05/05 13:27:00;;;;;;;;;;;27.70;91.50;;;;;;5125648;28;19948;-46
2022/05/05 13:29:27;;;;;;;;;;;27.70;91.30;;;;;;5126121;28;19908;-51
2022/05/05 13:31:53;;;;;;;;;;;27.60;91.20;;;;;;5125781;28;19915;-41
2022/05/05 13:34:19;;;;;;;;;;;27.70;91.30;;;;;;5125415;28;20112;-42
2022/05/05 13:36:45;;;;;;;;;;;27.60;91.20;;;;;;5125825;28;19908;-45
2022/05/05 13:39:12;;;;;;;;;;;27.70;91.20;;;;;;5107486;28;19915;-45
2022/05/05 13:41:38;;;;;;;;;;;27.70;91.30;;;;;;5105042;28;19953;-52
2022/05/05 13:44:04;;;;;;;;;;;27.70;91.20;;;;;;5118165;28;19916;-46
2022/05/05 13:46:31;;;;;;;;;;;27.70;91.30;;;;;;5125492;28;19982;-44
2022/05/05 13:48:57;;;;;;;;;;;27.70;91.00;;;;;;5125646;28;20195;-45
2022/05/05 13:51:24;;;;;;;;;;;27.70;91.00;;;;;;5115712;28;19927;-47
2022/05/05 13:53:50;;;;;;;;;;;27.70;90.90;;;;;;5095151;28;19923;-47
2022/05/05 13:56:16;;;;;;;;;;;27.70;91.00;;;;;;5084598;28;19935;-46
2022/05/05 13:58:42;;;;;;;;;;;27.70;91.10;;;;;;5084506;28;19909;-42
2022/05/05 14:01:09;;;;;;;;;;;27.70;91.40;;;;;;5095731;28;20108;-46
2022/05/05 14:03:35;;;;;;;;;;;27.70;91.60;;;;;;5104007;28;20184;-46
2022/05/05 14:06:01;;;;;;;;;;;27.70;91.60;;;;;;5094802;28;20006;-47
2022/05/05 14:13:58;;;;;;;;;;;27.80;91.90;;;;;;5105040;28;20088;-43
2022/05/05 14:16:25;;;;;;;;;;;27.80;91.90;;;;;;5102608;28;20023;-43
2022/05/05 14:18:53;;;;;;;;;;;27.80;91.80;;;;;;5103967;28;19909;-48
2022/05/05 14:21:19;;;;;;;;;;;27.80;91.70;;;;;;5104517;28;19912;-43
2022/05/05 14:23:45;;;;;;;;;;;27.80;91.60;;;;;;5102650;28;20080;-45
2022/05/05 14:26:11;;;;;;;;;;;27.80;91.60;;;;;;5086537;28;20224;-44
2022/05/05 14:28:37;;;;;;;;;;;27.80;91.70;;;;;;5084490;28;19958;-43
2022/05/05 14:31:04;;;;;;;;;;;27.80;91.60;;;;;;5084194;28;20196;-45
2022/05/05 14:33:30;;;;;;;;;;;27.80;91.70;;;;;;5099343;28;20155;-42
2022/05/05 14:35:56;;;;;;;;;;;27.90;91.50;;;;;;5104281;28;20250;-41
2022/05/05 14:38:22;;;;;;;;;;;27.90;91.50;;;;;;5094246;28;19915;-49
2022/05/05 14:40:48;;;;;;;;;;;27.90;91.60;;;;;;5083968;28;19916;-40
2022/05/05 14:43:14;;;;;;;;;;;27.90;91.30;;;;;;5101332;28;20231;-44
2022/05/05 14:45:41;;;;;;;;;;;27.90;91.40;;;;;;5110120;28;19920;-43
2022/05/05 14:48:07;;;;;;;;;;;27.90;91.40;;;;;;5119758;28;19915;-47
2022/05/05 14:50:34;;;;;;;;;;;27.90;91.50;;;;;;5107437;28;20081;-49
2022/05/05 14:53:01;;;;;;;;;;;27.90;91.50;;;;;;5109381;28;19924;-46
2022/05/05 14:55:27;;;;;;;;;;;27.90;91.60;;;;;;5123742;28;20045;-45
2022/05/05 14:57:53;;;;;;;;;;;27.90;91.50;;;;;;5119272;28;19978;-44
2022/05/05 15:00:19;;;;;;;;;;;27.90;91.70;;;;;;5128754;28;19957;-44
2022/05/05 15:02:45;;;;;;;;;;;28.00;91.90;;;;;;5125838;28;19958;-41
2022/05/05 15:05:14;;;;;;;;;;;28.00;92.00;;;;;;5129284;28;19908;-46
2022/05/05 15:07:41;;;;;;;;;;;28.00;91.80;;;;;;5107000;28;19908;-42
2022/05/05 15:10:07;;;;;;;;;;;27.90;91.90;;;;;;5125054;28;19909;-44
2022/05/05 15:12:34;;;;;;;;;;;28.00;92.00;;;;;;5114953;28;20107;-42